NCAR-RAP Real-Time Weather Data

Output produced by METARs form (14 October 2019  23:46 UTC)
found at http://weather.rap.ucar.edu/surface/
 
KPKB 142253Z 28005KT 10SM CLR 16/03 A3010 RMK AO2 SLP193 T01610028 $
KPKB 142153Z 28010KT 10SM CLR 18/02 A3009 RMK AO2 SLP188 T01830022 $
KPKB 142053Z 26007KT 230V300 10SM CLR 19/02 A3008 RMK AO2 SLP185 T01940022 55005 $
KPKB 141953Z 26009G20KT 10SM CLR 19/02 A3008 RMK AO2 SLP184 T01940022 $
KPKB 141853Z 27011G16KT 10SM CLR 19/02 A3008 RMK AO2 SLP185 T01890022 $
KPKB 141753Z 23009KT 10SM CLR 18/03 A3009 RMK AO2 SLP190 T01830028 10183 20072 58012 $
KPKB 141653Z 23010KT 10SM CLR 17/04 A3011 RMK AO2 SLP195 T01720039 $
KPKB 141553Z 23006KT 10SM CLR 16/04 A3012 RMK AO2 SLP201 T01560044 $
KPKB 141453Z 27007KT 10SM CLR 14/04 A3013 RMK AO2 SLP204 T01390044 51019 $
KPKB 141353Z VRB05KT 10SM CLR 12/05 A3012 RMK AO2 SLP199 T01220050 $
KPKB 141253Z 20003KT 10SM CLR 09/04 A3009 RMK AO2 SLP191 T00940044 $
KPKB 141153Z 22004KT 10SM CLR 07/03 A3007 RMK AO2 SLP185 T00720028 10083 20067 51014 $
KPKB 141053Z 20005KT 10SM CLR 08/03 A3006 RMK AO2 SLP180 T00780028 $
KPKB 140953Z AUTO 19004KT CLR 08/03 A3005 RMK AO2 SLP174 T00780028 $
KPKB 140853Z AUTO 20005KT CLR 08/03 A3003 RMK AO2 SLP167 T00830028 51005 $
KPKB 140753Z AUTO 22003KT CLR 08/03 A3002 RMK AO2 SLP164 T00780028 $
KPKB 140653Z AUTO 00000KT CLR 08/03 A3002 RMK AO2 SLP166 T00780033 $
KPKB 140553Z AUTO 19003KT CLR 08/03 A3001 RMK AO2 SLP162 T00780028 10106 20039 53003 $
KPKB 140453Z AUTO 15004KT CLR 04/03 A3001 RMK AO2 SLP162 T00440028 401890006 $
KPKB 140353Z AUTO 00000KT CLR 05/03 A3001 RMK AO2 SLP162 T00500033 $
KPKB 140253Z 00000KT CLR 06/03 A3000 RMK AO2 SLP162 T00610033 50005 $
KPKB 140153Z 00000KT 10SM CLR 07/04 A3000 RMK AO2 SLP163 T00670039
KPKB 140053Z 00000KT 10SM CLR 08/03 A3000 RMK AO2 SLP162 T00780033
KPKB 132353Z 16003KT 10SM CLR 10/03 A2999 RMK AO2 SLP158 T01000028 10189 20100 51002
KPKB 132253Z 20004KT 10SM CLR 14/01 A2999 RMK AO2 SLP157 T01440011
KPKB 132153Z 20007KT 10SM CLR 17/M01 A2998 RMK AO2 SLP155 T01671006
KPKB 132053Z 20007KT 10SM CLR 18/01 A2998 RMK AO2 SLP153 T01830011 56017
KPKB 131953Z 21007KT 10SM CLR 18/00 A3000 RMK AO2 SLP158 T01830000 $
KPKB 131853Z 21005KT 10SM CLR 17/05 A3001 RMK AO2 SLP163 T01670050 $
KPKB 131753Z 21005KT 10SM CLR 14/05 A3003 RMK AO2 SLP171 T01440050 10150 20011 58024 $
KPKB 131653Z 20004KT 10SM CLR 13/04 A3006 RMK AO2 SLP182 T01330039 $
KPKB 131553Z 24005KT 10SM CLR 12/05 A3009 RMK AO2 SLP191 T01220050 $
KPKB 131453Z 16004KT 10SM FEW003 10/06 A3011 RMK AO2 SLP197 T01000061 57005 $
KPKB 131353Z 00000KT 7SM BCFG SCT001 07/05 A3012 RMK AO2 SLP202 T00670050 $
KPKB 131253Z 13003KT 3SM BR SCT001 BKN060 03/02 A3011 RMK AO2 SLP200 T00330022 $
KPKB 131153Z 00000KT 1/2SM FG VV001 01/00 A3012 RMK AO2 SLP204 70004 T00110000 10028 20006 51005 $
KPKB 131148Z 00000KT 1/2SM FG VV001 01/00 A3012 RMK AO2 VIS N-SE 1/2 $
KPKB 131053Z 00000KT 10SM CLR 01/M01 A3012 RMK AO2 SLP203 T00061006 $
KPKB 130953Z AUTO 00000KT CLR 01/00 A3011 RMK AO2 SLP199 T00110000 $
KPKB 130853Z AUTO 00000KT CLR 02/01 A3011 RMK AO2 SLP197 T00170006 56010 $
KPKB 130753Z AUTO 00000KT CLR 02/01 A3011 RMK AO2 SLP200 T00220006 $
KPKB 130653Z AUTO 00000KT CLR 03/01 A3013 RMK AO2 SLP205 T00280011 $
KPKB 130553Z AUTO 00000KT CLR 03/02 A3014 RMK AO2 SLP207 T00280017 10094 20028 56007 $
KPKB 130453Z AUTO 14003KT CLR 04/03 A3014 RMK AO2 SLP208 T00440028 402110039 $
KPKB 130353Z AUTO 00000KT CLR 05/03 A3014 RMK AO2 SLP211 T00500028 $
KPKB 130253Z 00000KT 10SM CLR 05/03 A3016 RMK AO2 SLP216 T00500033 50003 $
KPKB 130153Z 00000KT 10SM CLR 06/03 A3017 RMK AO2 SLP218 T00560033 $
KPKB 130053Z 00000KT 10SM CLR 07/04 A3015 RMK AO2 SLP213 T00720039
KPKB 122353Z 18004KT 10SM CLR 09/02 A3015 RMK AO2 SLP211 T00940022 10144 20089 53000